John D. Leitch — VGWM — position and weather

sailwx.info

Track history (hours):
 
Tides and Currents Weather Stations Pressure Air Temp Water Temp Dewpoint Dewpoint Depression Visibility Wind Speed Wind Dir Waves Ship Positions

John D. Leitch

ex Canadian Century

Last reported at 2017-Dec-11 17:00 UTC. Time now 2017-Dec-13 22:17 UTC.
Position N 45°25' W 073°40'.

Length 222 m; draft 6.9 m.

Type: Cargo ship. MMSI: 316001701.

Date/timePositionNaut miles runAvg speedWind from/ knotsBaromVisibWave heightAir tempDewpointWater temp
2017-Dec-11 17:00N 45°25' W 073°40'3 5.1
2017-Dec-11 16:28N 45°24' W 073°36'1 2.2
2017-Dec-11 15:48N 45°24' W 073°34'0 1.5
2017-Dec-11 15:30N 45°24' W 073°33'2 3.5
2017-Dec-11 15:00N 45°25' W 073°31'2 3.1
2017-Dec-11 14:30N 45°26' W 073°30'2 4.1
2017-Dec-11 14:00N 45°28' W 073°30'2 1.4
2017-Dec-11 12:45N 45°30' W 073°31'0 0.0
2017-Dec-10 13:28N 45°30' W 073°31'2 3.9
2017-Dec-10 12:51N 45°27' W 073°30'2 6.5
2017-Dec-10 12:30N 45°25' W 073°31'2 4.6
2017-Dec-10 12:00N 45°24' W 073°34'0 0.6
2017-Dec-10 11:30N 45°24' W 073°34'1 2.0
2017-Dec-10 10:57N 45°24' W 073°36'0 0.0
2017-Dec-10 10:30N 45°24' W 073°36'0 0.0
2017-Dec-10 10:00N 45°24' W 073°36'0 0.0
2017-Dec-10 09:30N 45°24' W 073°36'0 0.0
2017-Dec-10 09:00N 45°24' W 073°36'0 0.0
2017-Dec-10 08:30N 45°24' W 073°36'0 0.0
2017-Dec-10 08:00N 45°24' W 073°36'0 0.0
2017-Dec-10 07:30N 45°24' W 073°36'0 0.0
2017-Dec-10 07:00N 45°24' W 073°36'0 0.0
2017-Dec-10 06:30N 45°24' W 073°36'0 0.0
2017-Dec-10 05:32N 45°24' W 073°36'0 0.0
2017-Dec-10 04:56N 45°24' W 073°36'0 0.0
2017-Dec-10 04:30N 45°24' W 073°36'1 1.7
2017-Dec-10 03:53N 45°24' W 073°37'2 4.4
2017-Dec-10 03:30N 45°25' W 073°40'3 5.0
2017-Dec-10 03:00N 45°25' W 073°43'5 9.1
2017-Dec-10 02:30N 45°23' W 073°49'510.4
2017-Dec-10 02:00N 45°19' W 073°55'0 0.9
2017-Dec-10 01:30N 45°19' W 073°55'1 1.3
2017-Dec-10 01:00N 45°18' W 073°55'0 0.4
2017-Dec-10 00:30N 45°18' W 073°56'1 1.7
2017-Dec-10 00:00N 45°17' W 073°56'3 5.6
2017-Dec-09 23:30N 45°15' W 073°58'7 9.5
2017-Dec-09 22:48N 45°14' W 074°08'  
2017-Dec-03 02:47N 45°44' W 083°40'412.1
2017-Dec-03 02:30N 45°41' W 083°38'612.2
2017-Dec-03 02:00N 45°36' W 083°32'612.2
2017-Dec-03 01:30N 45°31' W 083°27'612.4
2017-Dec-03 01:00N 45°26' W 083°22'  
Track history (hours):
 
Tides and Currents Weather Stations Pressure Air Temp Water Temp Dewpoint Dewpoint Depression Visibility Wind Speed Wind Dir Waves Ship Positions

John D. Leitch

ex Canadian Century

Last reported at 2017-Dec-11 17:00 UTC. Time now 2017-Dec-13 22:17 UTC.
Position N 45°25' W 073°40'.

Length 222 m; draft 6.9 m.

Type: Cargo ship. MMSI: 316001701.

Date/timePositionNaut miles runAvg speedWind from/ knotsBaromVisibWave heightAir tempDewpointWater temp
2017-Dec-11 17:00N 45°25' W 073°40'3 5.1
2017-Dec-11 16:28N 45°24' W 073°36'1 2.2
2017-Dec-11 15:48N 45°24' W 073°34'0 1.5
2017-Dec-11 15:30N 45°24' W 073°33'2 3.5
2017-Dec-11 15:00N 45°25' W 073°31'2 3.1
2017-Dec-11 14:30N 45°26' W 073°30'2 4.1
2017-Dec-11 14:00N 45°28' W 073°30'2 1.4
2017-Dec-11 12:45N 45°30' W 073°31'0 0.0
2017-Dec-10 13:28N 45°30' W 073°31'2 3.9
2017-Dec-10 12:51N 45°27' W 073°30'2 6.5
2017-Dec-10 12:30N 45°25' W 073°31'2 4.6
2017-Dec-10 12:00N 45°24' W 073°34'0 0.6
2017-Dec-10 11:30N 45°24' W 073°34'1 2.0
2017-Dec-10 10:57N 45°24' W 073°36'0 0.0
2017-Dec-10 10:30N 45°24' W 073°36'0 0.0
2017-Dec-10 10:00N 45°24' W 073°36'0 0.0
2017-Dec-10 09:30N 45°24' W 073°36'0 0.0
2017-Dec-10 09:00N 45°24' W 073°36'0 0.0
2017-Dec-10 08:30N 45°24' W 073°36'0 0.0
2017-Dec-10 08:00N 45°24' W 073°36'0 0.0
2017-Dec-10 07:30N 45°24' W 073°36'0 0.0
2017-Dec-10 07:00N 45°24' W 073°36'0 0.0
2017-Dec-10 06:30N 45°24' W 073°36'0 0.0
2017-Dec-10 05:32N 45°24' W 073°36'0 0.0
2017-Dec-10 04:56N 45°24' W 073°36'0 0.0
2017-Dec-10 04:30N 45°24' W 073°36'1 1.7
2017-Dec-10 03:53N 45°24' W 073°37'2 4.4
2017-Dec-10 03:30N 45°25' W 073°40'3 5.0
2017-Dec-10 03:00N 45°25' W 073°43'5 9.1
2017-Dec-10 02:30N 45°23' W 073°49'510.4
2017-Dec-10 02:00N 45°19' W 073°55'0 0.9
2017-Dec-10 01:30N 45°19' W 073°55'1 1.3
2017-Dec-10 01:00N 45°18' W 073°55'0 0.4
2017-Dec-10 00:30N 45°18' W 073°56'1 1.7
2017-Dec-10 00:00N 45°17' W 073°56'3 5.6
2017-Dec-09 23:30N 45°15' W 073°58'7 9.5
2017-Dec-09 22:48N 45°14' W 074°08'  
2017-Dec-03 02:47N 45°44' W 083°40'412.1
2017-Dec-03 02:30N 45°41' W 083°38'612.2
2017-Dec-03 02:00N 45°36' W 083°32'612.2
2017-Dec-03 01:30N 45°31' W 083°27'612.4
2017-Dec-03 01:00N 45°26' W 083°22'  

Dump ship's entire track history